sensor_id;sensor_type;location;lat;lon;timestamp;P1;durP1;ratioP1;P2;durP2;ratioP2
3815;SDS011;1923;48.154;11.536;2023-07-13T00:00:03;3.50;;;2.07;;
3815;SDS011;1923;48.154;11.536;2023-07-13T00:02:35;3.60;;;2.37;;
3815;SDS011;1923;48.154;11.536;2023-07-13T00:05:03;4.20;;;2.90;;
3815;SDS011;1923;48.154;11.536;2023-07-13T00:07:32;4.70;;;2.53;;
3815;SDS011;1923;48.154;11.536;2023-07-13T00:10:01;4.10;;;2.50;;
3815;SDS011;1923;48.154;11.536;2023-07-13T00:12:30;3.93;;;2.50;;
3815;SDS011;1923;48.154;11.536;2023-07-13T00:15:04;5.03;;;2.87;;
3815;SDS011;1923;48.154;11.536;2023-07-13T00:17:34;3.60;;;2.20;;
3815;SDS011;1923;48.154;11.536;2023-07-13T00:20:05;3.17;;;2.37;;
3815;SDS011;1923;48.154;11.536;2023-07-13T00:22:34;3.87;;;2.53;;
3815;SDS011;1923;48.154;11.536;2023-07-13T00:25:03;2.87;;;2.00;;
3815;SDS011;1923;48.154;11.536;2023-07-13T00:27:32;5.80;;;2.40;;
3815;SDS011;1923;48.154;11.536;2023-07-13T00:30:01;3.27;;;2.20;;
3815;SDS011;1923;48.154;11.536;2023-07-13T00:32:30;5.40;;;2.80;;
3815;SDS011;1923;48.154;11.536;2023-07-13T00:34:58;2.30;;;2.03;;
3815;SDS011;1923;48.154;11.536;2023-07-13T00:37:26;4.17;;;2.47;;
3815;SDS011;1923;48.154;11.536;2023-07-13T00:39:54;2.93;;;2.00;;
3815;SDS011;1923;48.154;11.536;2023-07-13T00:42:22;2.90;;;2.00;;
3815;SDS011;1923;48.154;11.536;2023-07-13T00:45:02;2.60;;;2.10;;
3815;SDS011;1923;48.154;11.536;2023-07-13T00:47:34;4.43;;;1.83;;
3815;SDS011;1923;48.154;11.536;2023-07-13T00:50:02;4.80;;;2.23;;
3815;SDS011;1923;48.154;11.536;2023-07-13T00:52:32;2.37;;;1.60;;
3815;SDS011;1923;48.154;11.536;2023-07-13T00:55:02;4.83;;;2.27;;
3815;SDS011;1923;48.154;11.536;2023-07-13T00:57:31;4.63;;;2.30;;
3815;SDS011;1923;48.154;11.536;2023-07-13T01:00:00;2.43;;;1.70;;
3815;SDS011;1923;48.154;11.536;2023-07-13T01:02:33;3.20;;;2.20;;
3815;SDS011;1923;48.154;11.536;2023-07-13T01:05:04;2.50;;;1.70;;
3815;SDS011;1923;48.154;11.536;2023-07-13T01:07:36;3.60;;;2.10;;
3815;SDS011;1923;48.154;11.536;2023-07-13T01:10:05;2.40;;;1.73;;
3815;SDS011;1923;48.154;11.536;2023-07-13T01:12:34;3.50;;;2.40;;
3815;SDS011;1923;48.154;11.536;2023-07-13T01:15:04;2.47;;;1.60;;
3815;SDS011;1923;48.154;11.536;2023-07-13T01:17:33;2.30;;;1.80;;
3815;SDS011;1923;48.154;11.536;2023-07-13T01:20:01;3.40;;;2.03;;
3815;SDS011;1923;48.154;11.536;2023-07-13T01:22:32;2.67;;;1.77;;
3815;SDS011;1923;48.154;11.536;2023-07-13T01:25:01;2.17;;;1.70;;
3815;SDS011;1923;48.154;11.536;2023-07-13T01:27:29;3.40;;;1.90;;
3815;SDS011;1923;48.154;11.536;2023-07-13T01:29:57;3.53;;;2.10;;
3815;SDS011;1923;48.154;11.536;2023-07-13T01:32:30;3.70;;;2.17;;
3815;SDS011;1923;48.154;11.536;2023-07-13T01:34:59;4.00;;;2.37;;
3815;SDS011;1923;48.154;11.536;2023-07-13T01:37:27;3.40;;;2.10;;
3815;SDS011;1923;48.154;11.536;2023-07-13T01:40:04;3.00;;;1.77;;
3815;SDS011;1923;48.154;11.536;2023-07-13T01:42:34;6.03;;;2.10;;
3815;SDS011;1923;48.154;11.536;2023-07-13T01:45:03;4.57;;;2.07;;
3815;SDS011;1923;48.154;11.536;2023-07-13T01:47:31;3.93;;;1.93;;
3815;SDS011;1923;48.154;11.536;2023-07-13T01:49:59;9.23;;;4.40;;
3815;SDS011;1923;48.154;11.536;2023-07-13T01:52:27;2.80;;;1.87;;
3815;SDS011;1923;48.154;11.536;2023-07-13T01:54:56;4.10;;;2.97;;
3815;SDS011;1923;48.154;11.536;2023-07-13T01:57:25;4.17;;;2.70;;
3815;SDS011;1923;48.154;11.536;2023-07-13T01:59:53;5.53;;;2.50;;
3815;SDS011;1923;48.154;11.536;2023-07-13T02:02:21;3.90;;;2.10;;
3815;SDS011;1923;48.154;11.536;2023-07-13T02:04:50;2.93;;;2.13;;
3815;SDS011;1923;48.154;11.536;2023-07-13T02:07:18;3.33;;;2.37;;
3815;SDS011;1923;48.154;11.536;2023-07-13T02:09:46;4.13;;;2.00;;
3815;SDS011;1923;48.154;11.536;2023-07-13T02:12:14;4.53;;;2.50;;
3815;SDS011;1923;48.154;11.536;2023-07-13T02:14:44;4.37;;;2.70;;
3815;SDS011;1923;48.154;11.536;2023-07-13T02:17:12;5.00;;;2.90;;
3815;SDS011;1923;48.154;11.536;2023-07-13T02:19:40;7.20;;;2.40;;
3815;SDS011;1923;48.154;11.536;2023-07-13T02:22:08;5.03;;;2.80;;
3815;SDS011;1923;48.154;11.536;2023-07-13T02:24:36;4.20;;;3.17;;
3815;SDS011;1923;48.154;11.536;2023-07-13T02:27:05;3.87;;;2.77;;
3815;SDS011;1923;48.154;11.536;2023-07-13T02:29:33;3.40;;;2.50;;
3815;SDS011;1923;48.154;11.536;2023-07-13T02:32:02;3.30;;;2.37;;
3815;SDS011;1923;48.154;11.536;2023-07-13T02:34:31;3.83;;;2.60;;
3815;SDS011;1923;48.154;11.536;2023-07-13T02:36:59;9.73;;;3.73;;
3815;SDS011;1923;48.154;11.536;2023-07-13T02:39:27;5.67;;;3.10;;
3815;SDS011;1923;48.154;11.536;2023-07-13T02:41:55;4.57;;;3.10;;
3815;SDS011;1923;48.154;11.536;2023-07-13T02:44:24;4.47;;;2.73;;
3815;SDS011;1923;48.154;11.536;2023-07-13T02:46:52;6.43;;;2.77;;
3815;SDS011;1923;48.154;11.536;2023-07-13T02:49:21;6.70;;;3.87;;
3815;SDS011;1923;48.154;11.536;2023-07-13T02:51:50;6.47;;;3.47;;
3815;SDS011;1923;48.154;11.536;2023-07-13T02:54:18;4.10;;;2.80;;
3815;SDS011;1923;48.154;11.536;2023-07-13T02:56:46;4.93;;;2.90;;
3815;SDS011;1923;48.154;11.536;2023-07-13T02:59:14;4.70;;;3.53;;
3815;SDS011;1923;48.154;11.536;2023-07-13T03:01:42;4.90;;;3.20;;
3815;SDS011;1923;48.154;11.536;2023-07-13T03:04:10;5.63;;;3.37;;
3815;SDS011;1923;48.154;11.536;2023-07-13T03:06:40;7.67;;;3.63;;
3815;SDS011;1923;48.154;11.536;2023-07-13T03:09:08;4.60;;;3.20;;
3815;SDS011;1923;48.154;11.536;2023-07-13T03:11:36;6.80;;;3.90;;
3815;SDS011;1923;48.154;11.536;2023-07-13T03:14:04;5.83;;;3.10;;
3815;SDS011;1923;48.154;11.536;2023-07-13T03:16:32;6.53;;;3.27;;
3815;SDS011;1923;48.154;11.536;2023-07-13T03:19:00;5.40;;;2.73;;
3815;SDS011;1923;48.154;11.536;2023-07-13T03:21:28;6.60;;;2.80;;
3815;SDS011;1923;48.154;11.536;2023-07-13T03:23:58;11.63;;;5.70;;
3815;SDS011;1923;48.154;11.536;2023-07-13T03:26:26;6.90;;;4.00;;
3815;SDS011;1923;48.154;11.536;2023-07-13T03:28:54;7.50;;;3.73;;
3815;SDS011;1923;48.154;11.536;2023-07-13T03:31:26;4.67;;;2.90;;
3815;SDS011;1923;48.154;11.536;2023-07-13T03:33:56;8.77;;;3.50;;
3815;SDS011;1923;48.154;11.536;2023-07-13T03:36:25;4.90;;;3.00;;
3815;SDS011;1923;48.154;11.536;2023-07-13T03:38:57;5.57;;;3.70;;
3815;SDS011;1923;48.154;11.536;2023-07-13T03:41:27;5.23;;;3.50;;
3815;SDS011;1923;48.154;11.536;2023-07-13T03:43:55;5.90;;;3.10;;
3815;SDS011;1923;48.154;11.536;2023-07-13T03:46:23;5.70;;;3.27;;
3815;SDS011;1923;48.154;11.536;2023-07-13T03:48:52;5.00;;;3.37;;
3815;SDS011;1923;48.154;11.536;2023-07-13T03:51:20;5.53;;;3.10;;
3815;SDS011;1923;48.154;11.536;2023-07-13T03:53:48;4.67;;;2.60;;
3815;SDS011;1923;48.154;11.536;2023-07-13T03:56:18;4.83;;;2.77;;
3815;SDS011;1923;48.154;11.536;2023-07-13T03:58:47;5.17;;;2.90;;
3815;SDS011;1923;48.154;11.536;2023-07-13T04:01:17;3.13;;;2.37;;
3815;SDS011;1923;48.154;11.536;2023-07-13T04:03:47;5.77;;;2.53;;
3815;SDS011;1923;48.154;11.536;2023-07-13T04:06:16;4.37;;;2.90;;
3815;SDS011;1923;48.154;11.536;2023-07-13T04:08:48;4.30;;;2.57;;
3815;SDS011;1923;48.154;11.536;2023-07-13T04:11:19;7.00;;;2.60;;
3815;SDS011;1923;48.154;11.536;2023-07-13T04:13:49;5.83;;;3.07;;
3815;SDS011;1923;48.154;11.536;2023-07-13T04:16:18;4.60;;;2.83;;
3815;SDS011;1923;48.154;11.536;2023-07-13T04:18:47;6.90;;;3.40;;
3815;SDS011;1923;48.154;11.536;2023-07-13T04:21:16;4.60;;;2.80;;
3815;SDS011;1923;48.154;11.536;2023-07-13T04:23:44;10.27;;;6.70;;
3815;SDS011;1923;48.154;11.536;2023-07-13T04:26:12;5.53;;;3.37;;
3815;SDS011;1923;48.154;11.536;2023-07-13T04:28:42;5.27;;;3.23;;
3815;SDS011;1923;48.154;11.536;2023-07-13T04:31:10;5.87;;;3.20;;
3815;SDS011;1923;48.154;11.536;2023-07-13T04:33:38;7.97;;;3.60;;
3815;SDS011;1923;48.154;11.536;2023-07-13T04:36:06;3.20;;;2.57;;
3815;SDS011;1923;48.154;11.536;2023-07-13T04:38:36;4.13;;;2.93;;
3815;SDS011;1923;48.154;11.536;2023-07-13T04:41:06;11.03;;;4.27;;
3815;SDS011;1923;48.154;11.536;2023-07-13T04:43:35;11.30;;;7.30;;
3815;SDS011;1923;48.154;11.536;2023-07-13T04:46:05;9.27;;;3.83;;
3815;SDS011;1923;48.154;11.536;2023-07-13T04:48:36;8.30;;;4.57;;
3815;SDS011;1923;48.154;11.536;2023-07-13T04:51:04;8.50;;;4.40;;
3815;SDS011;1923;48.154;11.536;2023-07-13T04:53:33;5.67;;;3.37;;
3815;SDS011;1923;48.154;11.536;2023-07-13T04:56:01;4.80;;;3.03;;
3815;SDS011;1923;48.154;11.536;2023-07-13T04:58:31;6.23;;;2.90;;
3815;SDS011;1923;48.154;11.536;2023-07-13T05:01:00;4.00;;;2.63;;
3815;SDS011;1923;48.154;11.536;2023-07-13T05:03:30;5.60;;;2.50;;
3815;SDS011;1923;48.154;11.536;2023-07-13T05:05:59;3.70;;;2.40;;
3815;SDS011;1923;48.154;11.536;2023-07-13T05:08:30;5.70;;;3.17;;
3815;SDS011;1923;48.154;11.536;2023-07-13T05:10:59;4.50;;;2.57;;
3815;SDS011;1923;48.154;11.536;2023-07-13T05:13:27;4.60;;;2.90;;
3815;SDS011;1923;48.154;11.536;2023-07-13T05:15:56;4.40;;;2.90;;
3815;SDS011;1923;48.154;11.536;2023-07-13T05:18:26;6.33;;;3.10;;
3815;SDS011;1923;48.154;11.536;2023-07-13T05:20:58;6.70;;;3.00;;
3815;SDS011;1923;48.154;11.536;2023-07-13T05:23:28;4.10;;;2.90;;
3815;SDS011;1923;48.154;11.536;2023-07-13T05:25:56;7.30;;;3.27;;
3815;SDS011;1923;48.154;11.536;2023-07-13T05:28:25;3.27;;;2.67;;
3815;SDS011;1923;48.154;11.536;2023-07-13T05:30:54;6.60;;;2.90;;
3815;SDS011;1923;48.154;11.536;2023-07-13T05:33:23;4.27;;;2.70;;
3815;SDS011;1923;48.154;11.536;2023-07-13T05:35:52;3.70;;;2.53;;
3815;SDS011;1923;48.154;11.536;2023-07-13T05:38:21;5.40;;;3.40;;
3815;SDS011;1923;48.154;11.536;2023-07-13T05:40:49;5.70;;;3.33;;
3815;SDS011;1923;48.154;11.536;2023-07-13T05:43:18;5.73;;;3.03;;
3815;SDS011;1923;48.154;11.536;2023-07-13T05:45:46;3.90;;;3.00;;
3815;SDS011;1923;48.154;11.536;2023-07-13T05:48:15;4.37;;;2.97;;
3815;SDS011;1923;48.154;11.536;2023-07-13T05:50:43;3.80;;;2.90;;
3815;SDS011;1923;48.154;11.536;2023-07-13T05:53:11;4.63;;;2.87;;
3815;SDS011;1923;48.154;11.536;2023-07-13T05:55:42;7.43;;;3.10;;
3815;SDS011;1923;48.154;11.536;2023-07-13T05:58:13;7.63;;;2.70;;
3815;SDS011;1923;48.154;11.536;2023-07-13T06:00:42;5.20;;;3.40;;
3815;SDS011;1923;48.154;11.536;2023-07-13T06:03:10;5.17;;;2.80;;
3815;SDS011;1923;48.154;11.536;2023-07-13T06:05:38;7.40;;;3.40;;
3815;SDS011;1923;48.154;11.536;2023-07-13T06:08:06;6.13;;;2.93;;
3815;SDS011;1923;48.154;11.536;2023-07-13T06:10:35;5.57;;;3.73;;
3815;SDS011;1923;48.154;11.536;2023-07-13T06:13:05;3.87;;;2.57;;
3815;SDS011;1923;48.154;11.536;2023-07-13T06:15:33;4.77;;;2.80;;
3815;SDS011;1923;48.154;11.536;2023-07-13T06:18:01;3.80;;;2.50;;
3815;SDS011;1923;48.154;11.536;2023-07-13T06:20:30;2.77;;;2.17;;
3815;SDS011;1923;48.154;11.536;2023-07-13T06:23:01;5.60;;;2.60;;
3815;SDS011;1923;48.154;11.536;2023-07-13T06:25:29;4.30;;;2.60;;
3815;SDS011;1923;48.154;11.536;2023-07-13T06:27:57;7.73;;;4.07;;
3815;SDS011;1923;48.154;11.536;2023-07-13T06:30:27;3.87;;;2.70;;
3815;SDS011;1923;48.154;11.536;2023-07-13T06:32:55;6.70;;;2.70;;
3815;SDS011;1923;48.154;11.536;2023-07-13T06:35:23;4.73;;;2.27;;
3815;SDS011;1923;48.154;11.536;2023-07-13T06:37:51;2.63;;;1.40;;
3815;SDS011;1923;48.154;11.536;2023-07-13T06:40:19;4.83;;;2.80;;
3815;SDS011;1923;48.154;11.536;2023-07-13T06:42:47;3.40;;;2.57;;
3815;SDS011;1923;48.154;11.536;2023-07-13T06:45:15;3.13;;;2.30;;
3815;SDS011;1923;48.154;11.536;2023-07-13T06:47:45;2.97;;;2.00;;
3815;SDS011;1923;48.154;11.536;2023-07-13T06:50:13;2.90;;;2.13;;
3815;SDS011;1923;48.154;11.536;2023-07-13T06:52:41;4.07;;;2.33;;
3815;SDS011;1923;48.154;11.536;2023-07-13T06:55:09;3.43;;;2.50;;
3815;SDS011;1923;48.154;11.536;2023-07-13T06:57:37;4.13;;;2.57;;
3815;SDS011;1923;48.154;11.536;2023-07-13T07:00:06;3.43;;;2.00;;
3815;SDS011;1923;48.154;11.536;2023-07-13T07:02:36;5.43;;;1.90;;
3815;SDS011;1923;48.154;11.536;2023-07-13T07:05:06;4.60;;;2.50;;
3815;SDS011;1923;48.154;11.536;2023-07-13T07:07:34;3.70;;;2.00;;
3815;SDS011;1923;48.154;11.536;2023-07-13T07:10:02;2.97;;;1.83;;
3815;SDS011;1923;48.154;11.536;2023-07-13T07:12:31;3.80;;;1.83;;
3815;SDS011;1923;48.154;11.536;2023-07-13T07:14:59;3.73;;;2.73;;
3815;SDS011;1923;48.154;11.536;2023-07-13T07:17:27;4.70;;;1.80;;
3815;SDS011;1923;48.154;11.536;2023-07-13T07:19:55;4.73;;;1.77;;
3815;SDS011;1923;48.154;11.536;2023-07-13T07:22:24;2.60;;;1.80;;
3815;SDS011;1923;48.154;11.536;2023-07-13T07:24:54;3.10;;;2.00;;
3815;SDS011;1923;48.154;11.536;2023-07-13T07:27:22;2.63;;;1.73;;
3815;SDS011;1923;48.154;11.536;2023-07-13T07:29:53;2.67;;;1.90;;
3815;SDS011;1923;48.154;11.536;2023-07-13T07:32:41;3.70;;;2.17;;
3815;SDS011;1923;48.154;11.536;2023-07-13T07:35:12;1.90;;;1.50;;
3815;SDS011;1923;48.154;11.536;2023-07-13T07:37:42;2.07;;;1.40;;
3815;SDS011;1923;48.154;11.536;2023-07-13T07:40:13;3.00;;;1.50;;
3815;SDS011;1923;48.154;11.536;2023-07-13T07:42:44;3.83;;;1.80;;
3815;SDS011;1923;48.154;11.536;2023-07-13T07:45:12;2.53;;;2.07;;
3815;SDS011;1923;48.154;11.536;2023-07-13T07:47:40;2.67;;;1.77;;
3815;SDS011;1923;48.154;11.536;2023-07-13T07:50:09;3.90;;;2.70;;
3815;SDS011;1923;48.154;11.536;2023-07-13T07:52:37;3.27;;;2.13;;
3815;SDS011;1923;48.154;11.536;2023-07-13T07:55:07;3.87;;;2.13;;
3815;SDS011;1923;48.154;11.536;2023-07-13T07:57:38;2.30;;;1.90;;
3815;SDS011;1923;48.154;11.536;2023-07-13T08:00:09;3.77;;;1.70;;
3815;SDS011;1923;48.154;11.536;2023-07-13T08:02:41;3.40;;;1.73;;
3815;SDS011;1923;48.154;11.536;2023-07-13T08:05:12;3.97;;;2.57;;
3815;SDS011;1923;48.154;11.536;2023-07-13T08:07:43;2.27;;;1.77;;
3815;SDS011;1923;48.154;11.536;2023-07-13T08:10:12;3.03;;;1.70;;
3815;SDS011;1923;48.154;11.536;2023-07-13T08:12:40;2.53;;;2.07;;
3815;SDS011;1923;48.154;11.536;2023-07-13T08:15:28;4.40;;;2.10;;
3815;SDS011;1923;48.154;11.536;2023-07-13T08:17:57;5.17;;;2.17;;
3815;SDS011;1923;48.154;11.536;2023-07-13T08:20:25;3.07;;;2.07;;
3815;SDS011;1923;48.154;11.536;2023-07-13T08:22:53;2.97;;;1.53;;
3815;SDS011;1923;48.154;11.536;2023-07-13T08:25:22;4.87;;;2.20;;
3815;SDS011;1923;48.154;11.536;2023-07-13T08:27:51;3.37;;;2.17;;
3815;SDS011;1923;48.154;11.536;2023-07-13T08:30:19;4.30;;;2.00;;
3815;SDS011;1923;48.154;11.536;2023-07-13T08:32:47;3.10;;;1.90;;
3815;SDS011;1923;48.154;11.536;2023-07-13T08:35:15;6.43;;;2.00;;
3815;SDS011;1923;48.154;11.536;2023-07-13T08:37:44;3.87;;;2.10;;
3815;SDS011;1923;48.154;11.536;2023-07-13T08:40:12;4.10;;;2.20;;
3815;SDS011;1923;48.154;11.536;2023-07-13T08:42:44;3.00;;;2.00;;
3815;SDS011;1923;48.154;11.536;2023-07-13T08:45:17;3.10;;;2.10;;
3815;SDS011;1923;48.154;11.536;2023-07-13T08:47:51;4.03;;;2.07;;
3815;SDS011;1923;48.154;11.536;2023-07-13T08:50:22;2.67;;;1.60;;
3815;SDS011;1923;48.154;11.536;2023-07-13T08:52:55;5.70;;;1.60;;
3815;SDS011;1923;48.154;11.536;2023-07-13T08:55:26;2.07;;;1.63;;
3815;SDS011;1923;48.154;11.536;2023-07-13T08:58:02;4.43;;;1.43;;
3815;SDS011;1923;48.154;11.536;2023-07-13T09:00:38;2.13;;;1.47;;
3815;SDS011;1923;48.154;11.536;2023-07-13T09:03:17;2.70;;;1.67;;
3815;SDS011;1923;48.154;11.536;2023-07-13T09:05:49;3.83;;;1.70;;
3815;SDS011;1923;48.154;11.536;2023-07-13T09:08:30;2.80;;;1.83;;
3815;SDS011;1923;48.154;11.536;2023-07-13T09:11:10;6.30;;;2.00;;
3815;SDS011;1923;48.154;11.536;2023-07-13T09:13:52;4.37;;;1.60;;
3815;SDS011;1923;48.154;11.536;2023-07-13T09:16:27;1.70;;;1.60;;
3815;SDS011;1923;48.154;11.536;2023-07-13T09:18:56;2.50;;;1.40;;
3815;SDS011;1923;48.154;11.536;2023-07-13T09:21:30;12.40;;;4.63;;
3815;SDS011;1923;48.154;11.536;2023-07-13T09:24:03;6.90;;;3.07;;
3815;SDS011;1923;48.154;11.536;2023-07-13T09:26:50;4.80;;;2.37;;
3815;SDS011;1923;48.154;11.536;2023-07-13T09:29:22;3.80;;;2.20;;
3815;SDS011;1923;48.154;11.536;2023-07-13T09:31:55;2.20;;;1.60;;
3815;SDS011;1923;48.154;11.536;2023-07-13T09:34:27;4.40;;;1.23;;
3815;SDS011;1923;48.154;11.536;2023-07-13T09:36:56;3.97;;;1.87;;
3815;SDS011;1923;48.154;11.536;2023-07-13T09:39:25;2.40;;;1.77;;
3815;SDS011;1923;48.154;11.536;2023-07-13T09:41:57;3.90;;;1.90;;
3815;SDS011;1923;48.154;11.536;2023-07-13T09:44:33;3.17;;;2.10;;
3815;SDS011;1923;48.154;11.536;2023-07-13T09:47:03;1.97;;;1.53;;
3815;SDS011;1923;48.154;11.536;2023-07-13T09:49:42;5.40;;;1.40;;
3815;SDS011;1923;48.154;11.536;2023-07-13T09:52:12;2.70;;;1.87;;
3815;SDS011;1923;48.154;11.536;2023-07-13T09:54:44;3.03;;;2.20;;
3815;SDS011;1923;48.154;11.536;2023-07-13T09:57:23;2.20;;;1.30;;
3815;SDS011;1923;48.154;11.536;2023-07-13T10:00:19;3.77;;;1.53;;
3815;SDS011;1923;48.154;11.536;2023-07-13T10:02:57;3.40;;;1.43;;
3815;SDS011;1923;48.154;11.536;2023-07-13T10:05:37;3.00;;;1.30;;
3815;SDS011;1923;48.154;11.536;2023-07-13T10:08:14;5.03;;;1.23;;
3815;SDS011;1923;48.154;11.536;2023-07-13T10:10:52;2.57;;;1.30;;
3815;SDS011;1923;48.154;11.536;2023-07-13T10:13:29;2.80;;;1.07;;
3815;SDS011;1923;48.154;11.536;2023-07-13T10:16:02;1.87;;;1.40;;
3815;SDS011;1923;48.154;11.536;2023-07-13T10:18:36;2.70;;;1.50;;
3815;SDS011;1923;48.154;11.536;2023-07-13T10:21:13;1.40;;;1.13;;
3815;SDS011;1923;48.154;11.536;2023-07-13T10:24:14;2.50;;;1.23;;
3815;SDS011;1923;48.154;11.536;2023-07-13T10:26:46;2.63;;;1.50;;
3815;SDS011;1923;48.154;11.536;2023-07-13T10:29:19;2.10;;;1.20;;
3815;SDS011;1923;48.154;11.536;2023-07-13T10:31:51;4.73;;;2.07;;
3815;SDS011;1923;48.154;11.536;2023-07-13T10:34:19;4.43;;;1.47;;
3815;SDS011;1923;48.154;11.536;2023-07-13T10:36:48;2.77;;;1.73;;
3815;SDS011;1923;48.154;11.536;2023-07-13T10:39:17;3.57;;;1.60;;
3815;SDS011;1923;48.154;11.536;2023-07-13T10:41:49;11.00;;;2.90;;
3815;SDS011;1923;48.154;11.536;2023-07-13T10:44:21;1.33;;;1.23;;
3815;SDS011;1923;48.154;11.536;2023-07-13T10:46:57;2.33;;;1.67;;
3815;SDS011;1923;48.154;11.536;2023-07-13T10:49:27;2.73;;;1.40;;
3815;SDS011;1923;48.154;11.536;2023-07-13T10:51:58;3.20;;;1.23;;
3815;SDS011;1923;48.154;11.536;2023-07-13T10:54:27;3.07;;;1.63;;
3815;SDS011;1923;48.154;11.536;2023-07-13T10:57:10;2.17;;;1.10;;
3815;SDS011;1923;48.154;11.536;2023-07-13T10:59:45;3.63;;;1.83;;
3815;SDS011;1923;48.154;11.536;2023-07-13T11:02:21;4.37;;;1.70;;
3815;SDS011;1923;48.154;11.536;2023-07-13T11:04:54;4.50;;;1.80;;
3815;SDS011;1923;48.154;11.536;2023-07-13T11:07:25;1.70;;;1.00;;
3815;SDS011;1923;48.154;11.536;2023-07-13T11:09:55;3.70;;;1.33;;
3815;SDS011;1923;48.154;11.536;2023-07-13T11:12:48;2.03;;;1.67;;
3815;SDS011;1923;48.154;11.536;2023-07-13T11:15:29;3.63;;;1.50;;
3815;SDS011;1923;48.154;11.536;2023-07-13T11:18:03;2.07;;;1.30;;
3815;SDS011;1923;48.154;11.536;2023-07-13T11:20:40;1.73;;;1.13;;
3815;SDS011;1923;48.154;11.536;2023-07-13T11:25:57;4.43;;;1.97;;
3815;SDS011;1923;48.154;11.536;2023-07-13T11:28:27;1.70;;;1.20;;
3815;SDS011;1923;48.154;11.536;2023-07-13T11:31:00;2.20;;;1.40;;
3815;SDS011;1923;48.154;11.536;2023-07-13T11:36:27;1.80;;;1.23;;
3815;SDS011;1923;48.154;11.536;2023-07-13T11:39:12;2.07;;;1.23;;
3815;SDS011;1923;48.154;11.536;2023-07-13T11:41:48;2.63;;;1.80;;
3815;SDS011;1923;48.154;11.536;2023-07-13T11:44:19;1.63;;;1.30;;
3815;SDS011;1923;48.154;11.536;2023-07-13T11:46:50;2.77;;;1.77;;
3815;SDS011;1923;48.154;11.536;2023-07-13T11:49:23;3.40;;;1.53;;
3815;SDS011;1923;48.154;11.536;2023-07-13T11:51:53;2.93;;;1.73;;
3815;SDS011;1923;48.154;11.536;2023-07-13T11:54:25;2.40;;;1.50;;
3815;SDS011;1923;48.154;11.536;2023-07-13T11:56:57;1.73;;;1.40;;
3815;SDS011;1923;48.154;11.536;2023-07-13T11:59:29;3.13;;;1.50;;
3815;SDS011;1923;48.154;11.536;2023-07-13T12:01:59;3.07;;;1.60;;
3815;SDS011;1923;48.154;11.536;2023-07-13T12:04:30;1.60;;;1.00;;
3815;SDS011;1923;48.154;11.536;2023-07-13T12:07:04;3.03;;;1.47;;
3815;SDS011;1923;48.154;11.536;2023-07-13T12:09:35;2.87;;;2.03;;
3815;SDS011;1923;48.154;11.536;2023-07-13T12:12:08;3.33;;;1.90;;
3815;SDS011;1923;48.154;11.536;2023-07-13T12:14:39;2.73;;;1.50;;
3815;SDS011;1923;48.154;11.536;2023-07-13T12:17:11;3.43;;;1.30;;
3815;SDS011;1923;48.154;11.536;2023-07-13T12:19:44;5.30;;;2.27;;
3815;SDS011;1923;48.154;11.536;2023-07-13T12:22:13;3.17;;;1.63;;
3815;SDS011;1923;48.154;11.536;2023-07-13T12:24:43;3.93;;;1.33;;
3815;SDS011;1923;48.154;11.536;2023-07-13T12:27:18;2.73;;;1.50;;
3815;SDS011;1923;48.154;11.536;2023-07-13T12:29:49;2.13;;;1.10;;
3815;SDS011;1923;48.154;11.536;2023-07-13T12:32:20;2.00;;;1.50;;
3815;SDS011;1923;48.154;11.536;2023-07-13T12:34:53;1.37;;;1.27;;
3815;SDS011;1923;48.154;11.536;2023-07-13T12:37:23;1.33;;;0.87;;
3815;SDS011;1923;48.154;11.536;2023-07-13T12:39:52;2.00;;;1.10;;
3815;SDS011;1923;48.154;11.536;2023-07-13T12:42:21;1.17;;;0.80;;
3815;SDS011;1923;48.154;11.536;2023-07-13T12:44:55;1.90;;;1.57;;
3815;SDS011;1923;48.154;11.536;2023-07-13T12:47:25;5.43;;;2.47;;
3815;SDS011;1923;48.154;11.536;2023-07-13T12:49:56;2.20;;;1.30;;
3815;SDS011;1923;48.154;11.536;2023-07-13T12:52:28;2.03;;;1.70;;
3815;SDS011;1923;48.154;11.536;2023-07-13T12:55:02;2.00;;;1.30;;
3815;SDS011;1923;48.154;11.536;2023-07-13T12:57:40;2.07;;;1.47;;
3815;SDS011;1923;48.154;11.536;2023-07-13T13:00:20;1.97;;;1.17;;
3815;SDS011;1923;48.154;11.536;2023-07-13T13:02:52;1.20;;;1.10;;
3815;SDS011;1923;48.154;11.536;2023-07-13T13:05:42;1.70;;;1.20;;
3815;SDS011;1923;48.154;11.536;2023-07-13T13:08:12;2.57;;;1.30;;
3815;SDS011;1923;48.154;11.536;2023-07-13T13:10:42;3.53;;;1.10;;
3815;SDS011;1923;48.154;11.536;2023-07-13T13:13:12;3.77;;;1.30;;
3815;SDS011;1923;48.154;11.536;2023-07-13T13:15:40;3.47;;;1.83;;
3815;SDS011;1923;48.154;11.536;2023-07-13T13:18:13;1.80;;;1.20;;
3815;SDS011;1923;48.154;11.536;2023-07-13T13:20:45;3.07;;;1.87;;
3815;SDS011;1923;48.154;11.536;2023-07-13T13:23:14;3.40;;;1.67;;
3815;SDS011;1923;48.154;11.536;2023-07-13T13:25:44;1.47;;;0.90;;
3815;SDS011;1923;48.154;11.536;2023-07-13T13:28:14;1.60;;;1.40;;
3815;SDS011;1923;48.154;11.536;2023-07-13T13:30:44;2.80;;;1.50;;
3815;SDS011;1923;48.154;11.536;2023-07-13T13:33:14;2.50;;;1.40;;
3815;SDS011;1923;48.154;11.536;2023-07-13T13:35:43;1.67;;;1.10;;
3815;SDS011;1923;48.154;11.536;2023-07-13T13:38:13;1.30;;;1.13;;
3815;SDS011;1923;48.154;11.536;2023-07-13T13:40:44;5.13;;;1.33;;
3815;SDS011;1923;48.154;11.536;2023-07-13T13:43:16;2.00;;;1.30;;
3815;SDS011;1923;48.154;11.536;2023-07-13T13:45:46;2.13;;;1.50;;
3815;SDS011;1923;48.154;11.536;2023-07-13T13:48:15;1.77;;;0.97;;
3815;SDS011;1923;48.154;11.536;2023-07-13T13:50:46;2.03;;;1.03;;
3815;SDS011;1923;48.154;11.536;2023-07-13T13:53:15;1.43;;;1.10;;
3815;SDS011;1923;48.154;11.536;2023-07-13T13:55:43;1.40;;;1.20;;
3815;SDS011;1923;48.154;11.536;2023-07-13T13:58:13;2.10;;;1.23;;
3815;SDS011;1923;48.154;11.536;2023-07-13T14:00:41;2.03;;;1.53;;
3815;SDS011;1923;48.154;11.536;2023-07-13T14:03:13;2.50;;;1.30;;
3815;SDS011;1923;48.154;11.536;2023-07-13T14:05:46;3.17;;;1.13;;
3815;SDS011;1923;48.154;11.536;2023-07-13T14:08:16;1.63;;;1.20;;
3815;SDS011;1923;48.154;11.536;2023-07-13T14:10:45;1.57;;;1.17;;
3815;SDS011;1923;48.154;11.536;2023-07-13T14:13:16;1.30;;;1.03;;
3815;SDS011;1923;48.154;11.536;2023-07-13T14:15:46;4.00;;;0.90;;
3815;SDS011;1923;48.154;11.536;2023-07-13T14:18:15;3.67;;;1.30;;
3815;SDS011;1923;48.154;11.536;2023-07-13T14:20:46;2.53;;;1.43;;
3815;SDS011;1923;48.154;11.536;2023-07-13T14:23:17;3.07;;;1.60;;
3815;SDS011;1923;48.154;11.536;2023-07-13T14:25:45;1.63;;;1.10;;
3815;SDS011;1923;48.154;11.536;2023-07-13T14:28:18;2.50;;;1.17;;
3815;SDS011;1923;48.154;11.536;2023-07-13T14:30:48;2.07;;;1.07;;
3815;SDS011;1923;48.154;11.536;2023-07-13T14:33:16;1.83;;;1.20;;
3815;SDS011;1923;48.154;11.536;2023-07-13T14:35:47;1.87;;;1.10;;
3815;SDS011;1923;48.154;11.536;2023-07-13T14:38:18;3.40;;;1.27;;
3815;SDS011;1923;48.154;11.536;2023-07-13T14:40:47;3.50;;;1.27;;
3815;SDS011;1923;48.154;11.536;2023-07-13T14:43:16;1.37;;;0.97;;
3815;SDS011;1923;48.154;11.536;2023-07-13T14:45:46;2.40;;;1.37;;
3815;SDS011;1923;48.154;11.536;2023-07-13T14:48:21;3.30;;;1.57;;
3815;SDS011;1923;48.154;11.536;2023-07-13T14:50:54;3.50;;;1.20;;
3815;SDS011;1923;48.154;11.536;2023-07-13T14:53:24;2.50;;;1.10;;
3815;SDS011;1923;48.154;11.536;2023-07-13T14:55:54;4.63;;;3.40;;
3815;SDS011;1923;48.154;11.536;2023-07-13T14:58:22;2.77;;;1.87;;
3815;SDS011;1923;48.154;11.536;2023-07-13T15:00:50;1.87;;;1.30;;
3815;SDS011;1923;48.154;11.536;2023-07-13T15:03:23;2.47;;;1.20;;
3815;SDS011;1923;48.154;11.536;2023-07-13T15:05:54;1.53;;;1.20;;
3815;SDS011;1923;48.154;11.536;2023-07-13T15:08:22;1.50;;;1.30;;
3815;SDS011;1923;48.154;11.536;2023-07-13T15:10:51;1.20;;;0.80;;
3815;SDS011;1923;48.154;11.536;2023-07-13T15:13:21;3.60;;;1.47;;
3815;SDS011;1923;48.154;11.536;2023-07-13T15:15:50;4.27;;;1.47;;
3815;SDS011;1923;48.154;11.536;2023-07-13T15:18:20;1.67;;;1.00;;
3815;SDS011;1923;48.154;11.536;2023-07-13T15:20:50;3.80;;;1.97;;
3815;SDS011;1923;48.154;11.536;2023-07-13T15:23:21;2.10;;;1.43;;
3815;SDS011;1923;48.154;11.536;2023-07-13T15:25:50;2.37;;;1.47;;